Time;durP1;ratioP1;P1;durP2;ratioP2;P2;SDS_P1;SDS_P2;PMS_P1;PMS_P2;Temp;Humidity;BMP_temperature;BMP_pressure;BME280_temperature;BME280_humidity;BME280_pressure;Samples;Min_cycle;Max_cycle;Signal;HPM_P1;HPM_P2
2023/03/20 00:01:16;;;;;;;9.85;8.40;;;;;;;-142.70;100.00;60390.16;4867160;29;20685;-76
2023/03/20 00:03:42;;;;;;;5.82;5.22;;;;;;;-142.70;100.00;60390.16;4850214;29;20480;-76
2023/03/20 00:06:18;;;;;;;11.35;5.88;;;;;;;-142.70;100.00;60390.16;4866090;29;20112;-76
2023/03/20 00:08:44;;;;;;;7.90;4.85;;;;;;;-142.70;100.00;60390.16;4866895;29;20093;-76
2023/03/20 00:11:28;;;;;;;6.90;5.10;;;;;;;-142.70;100.00;60390.16;4866829;29;20044;-76
2023/03/20 00:13:55;;;;;;;4.95;4.00;;;;;;;-142.70;100.00;60390.16;4868186;29;20045;-76
2023/03/20 00:16:23;;;;;;;7.78;5.28;;;;;;;-142.70;100.00;60390.16;4865425;29;20036;-76
2023/03/20 00:18:48;;;;;;;7.15;5.05;;;;;;;-142.70;100.00;60390.16;4866926;29;20116;-76
2023/03/20 00:21:17;;;;;;;7.28;5.00;;;;;;;-142.70;100.00;60390.16;4867056;29;20080;-76
2023/03/20 00:23:43;;;;;;;6.55;5.53;;;;;;;-142.70;100.00;60390.16;4865617;29;20068;-76
2023/03/20 00:26:13;;;;;;;5.50;4.93;;;;;;;-142.70;100.00;60390.16;4882014;29;20085;-76
2023/03/20 00:28:41;;;;;;;9.32;5.97;;;;;;;-142.70;100.00;60390.16;4865334;29;20036;-77
2023/03/20 00:31:37;;;;;;;5.93;4.85;;;;;;;-142.70;100.00;60390.16;4866508;29;20033;-76
2023/03/20 00:34:05;;;;;;;8.77;6.90;;;;;;;-142.70;100.00;60390.16;4863557;29;20052;-76
2023/03/20 00:36:31;;;;;;;18.58;11.82;;;;;;;-142.70;100.00;60390.16;4850938;29;20025;-76
2023/03/20 00:38:58;;;;;;;16.02;11.38;;;;;;;-142.70;100.00;60390.16;4866491;29;20041;-76
2023/03/20 00:41:30;;;;;;;19.10;12.23;;;;;;;-142.70;100.00;60390.16;4864808;29;20381;-76
2023/03/20 00:44:15;;;;;;;13.90;9.27;;;;;;;-142.70;100.00;60390.16;4869348;29;20114;-76
2023/03/20 00:46:41;;;;;;;10.10;7.88;;;;;;;-142.70;100.00;60390.16;4869765;29;20037;-76
2023/03/20 00:49:10;;;;;;;11.02;9.85;;;;;;;-142.70;100.00;60390.16;4870149;29;20105;-76
2023/03/20 00:51:37;;;;;;;16.17;10.18;;;;;;;-142.70;100.00;60390.16;4869386;29;20085;-76
2023/03/20 00:54:09;;;;;;;8.55;6.35;;;;;;;-142.70;100.00;60390.16;4884696;29;20630;-76
2023/03/20 00:56:39;;;;;;;8.38;5.60;;;;;;;-142.70;100.00;60390.16;4869615;29;20500;-76
2023/03/20 00:59:06;;;;;;;6.70;5.65;;;;;;;-142.70;100.00;60390.16;4870503;29;20085;-76
2023/03/20 01:01:31;;;;;;;5.60;5.10;;;;;;;-142.70;100.00;60390.16;4869427;29;20029;-76
2023/03/20 01:03:58;;;;;;;5.35;4.55;;;;;;;-142.70;100.00;60390.16;4868365;29;20471;-76
2023/03/20 01:06:23;;;;;;;6.72;5.43;;;;;;;-142.70;100.00;60390.16;4869317;29;20033;-76
2023/03/20 01:08:49;;;;;;;8.20;6.38;;;;;;;-142.70;100.00;60390.16;4884478;29;20044;-76
2023/03/20 01:11:20;;;;;;;9.00;5.93;;;;;;;-142.70;100.00;60390.16;4884791;29;20039;-76
2023/03/20 01:13:46;;;;;;;6.65;6.05;;;;;;;-142.70;100.00;60390.16;4870415;29;20033;-76
2023/03/20 01:16:23;;;;;;;7.88;6.45;;;;;;;-142.70;100.00;60390.16;4883986;29;20032;-76
2023/03/20 01:18:49;;;;;;;13.10;10.95;;;;;;;-142.70;100.00;60390.16;4870489;29;20029;-76
2023/03/20 01:21:15;;;;;;;17.77;15.98;;;;;;;-142.70;100.00;60390.16;4869398;29;20025;-76
2023/03/20 01:23:40;;;;;;;10.52;7.28;;;;;;;-142.70;100.00;60390.16;4868762;29;20085;-76
2023/03/20 01:26:29;;;;;;;7.78;6.35;;;;;;;-142.70;100.00;60390.16;4869815;29;20025;-76
2023/03/20 01:28:54;;;;;;;6.60;6.00;;;;;;;-142.70;100.00;60390.16;4853079;29;20040;-76
2023/03/20 01:31:20;;;;;;;7.18;5.32;;;;;;;-142.70;100.00;60390.16;4870315;29;20036;-76
2023/03/20 01:33:45;;;;;;;7.15;6.20;;;;;;;-142.70;100.00;60390.16;4883694;29;20036;-76
2023/03/20 01:36:17;;;;;;;7.43;6.68;;;;;;;-142.70;100.00;60390.16;4869189;29;20041;-76
2023/03/20 01:38:44;;;;;;;13.15;9.77;;;;;;;-142.70;100.00;60390.16;4867898;29;20060;-76
2023/03/20 01:41:11;;;;;;;7.78;7.00;;;;;;;-142.70;100.00;60390.16;4852869;29;20033;-76
2023/03/20 01:43:37;;;;;;;8.57;6.10;;;;;;;-142.70;100.00;60390.16;4883303;29;20036;-77
2023/03/20 01:46:08;;;;;;;7.03;6.22;;;;;;;-142.70;100.00;60390.16;4869721;29;20036;-77
2023/03/20 01:48:49;;;;;;;6.97;6.15;;;;;;;-142.70;100.00;60390.16;4869797;29;20083;-76
2023/03/20 01:51:19;;;;;;;6.75;6.07;;;;;;;-142.70;100.00;60390.16;4868911;29;20127;-76
2023/03/20 01:53:46;;;;;;;11.38;6.75;;;;;;;-142.70;100.00;60390.16;4867124;29;20052;-76
2023/03/20 01:56:14;;;;;;;7.13;6.25;;;;;;;-142.70;100.00;60390.16;4866868;29;20049;-76
2023/03/20 01:58:49;;;;;;;7.32;5.68;;;;;;;-142.70;100.00;60390.16;4869683;29;20025;-76
2023/03/20 02:01:15;;;;;;;7.43;6.70;;;;;;;-142.70;100.00;60390.16;4868238;29;20044;-76
2023/03/20 02:03:44;;;;;;;7.00;6.18;;;;;;;-142.70;100.00;60390.16;4867595;29;20025;-76
2023/03/20 02:06:10;;;;;;;6.88;5.95;;;;;;;-142.70;100.00;60390.16;4868703;29;20052;-76
2023/03/20 02:08:50;;;;;;;9.63;6.28;;;;;;;-142.70;100.00;60390.16;4852130;29;20473;-77
2023/03/20 02:11:17;;;;;;;6.95;6.15;;;;;;;-142.70;100.00;60390.16;4868295;29;20039;-76
2023/03/20 02:13:43;;;;;;;7.13;5.97;;;;;;;-142.70;100.00;60390.16;4868664;29;20560;-77
2023/03/20 02:16:14;;;;;;;7.78;6.47;;;;;;;-142.70;100.00;60390.16;4868014;29;20037;-76
2023/03/20 02:18:42;;;;;;;7.95;7.15;;;;;;;-142.70;100.00;60390.16;4867961;29;20393;-76
2023/03/20 02:21:25;;;;;;;8.50;6.32;;;;;;;-142.70;100.00;60390.16;4866867;29;20040;-76
2023/03/20 02:23:54;;;;;;;8.32;6.53;;;;;;;-142.70;100.00;60390.16;4869370;29;20035;-76
2023/03/20 02:26:31;;;;;;;8.00;6.50;;;;;;;-142.70;100.00;60390.16;4869390;29;20033;-76
2023/03/20 02:29:49;;;;;;;8.80;6.63;;;;;;;-142.70;100.00;60390.16;4868329;29;20526;-76
2023/03/20 02:32:26;;;;;;;11.20;10.18;;;;;;;-142.70;100.00;60390.16;4846374;29;20048;-76
2023/03/20 02:35:29;;;;;;;7.38;6.63;;;;;;;-142.70;100.00;60390.16;4882111;29;20100;-76
2023/03/20 02:38:10;;;;;;;7.28;6.57;;;;;;;-142.70;100.00;60390.16;4868728;29;20092;-76
2023/03/20 02:41:02;;;;;;;7.40;5.90;;;;;;;-142.70;100.00;60390.16;4869413;29;20101;-76
2023/03/20 02:43:31;;;;;;;7.00;6.30;;;;;;;-142.70;100.00;60390.16;4838124;29;20507;-76
2023/03/20 02:46:11;;;;;;;8.05;6.53;;;;;;;-142.70;100.00;60390.16;4883184;29;20060;-76
2023/03/20 02:48:50;;;;;;;6.95;6.25;;;;;;;-142.70;100.00;60390.16;4864957;29;20263;-76
2023/03/20 02:51:24;;;;;;;7.15;6.32;;;;;;;-142.70;100.00;60390.16;4868474;29;20530;-76
2023/03/20 02:53:59;;;;;;;6.80;6.05;;;;;;;-142.70;100.00;60390.16;4867230;29;20021;-76
2023/03/20 02:56:34;;;;;;;6.43;5.72;;;;;;;-142.70;100.00;60390.16;4867557;29;20108;-76
2023/03/20 02:59:18;;;;;;;8.70;6.50;;;;;;;-142.70;100.00;60390.16;4867213;29;20483;-77
2023/03/20 03:01:48;;;;;;;7.13;5.50;;;;;;;-142.70;100.00;60390.16;4866622;29;20040;-76
2023/03/20 03:04:18;;;;;;;9.32;6.28;;;;;;;-142.70;100.00;60390.16;4867013;29;20467;-76
2023/03/20 03:06:46;;;;;;;9.50;5.57;;;;;;;-142.70;100.00;60390.16;4851655;29;20115;-76
2023/03/20 03:09:19;;;;;;;8.32;6.30;;;;;;;-142.70;100.00;60390.16;4865815;29;20040;-76
2023/03/20 03:11:51;;;;;;;7.15;6.45;;;;;;;-142.70;100.00;60390.16;4868637;29;20040;-76
2023/03/20 03:14:30;;;;;;;7.65;6.85;;;;;;;-142.70;100.00;60390.16;4850565;29;20072;-76
2023/03/20 03:16:56;;;;;;;8.50;6.45;;;;;;;-142.70;100.00;60390.16;4868482;29;20073;-76
2023/03/20 03:19:23;;;;;;;9.00;6.18;;;;;;;-142.70;100.00;60390.16;4851106;29;20446;-76
2023/03/20 03:21:49;;;;;;;10.63;7.03;;;;;;;-142.70;100.00;60390.16;4866272;29;20105;-76
2023/03/20 03:24:28;;;;;;;9.13;6.82;;;;;;;-142.70;100.00;60390.16;4882398;29;20033;-76
2023/03/20 03:26:58;;;;;;;6.63;5.50;;;;;;;-142.70;100.00;60390.16;4866078;29;20547;-76
2023/03/20 03:29:29;;;;;;;11.73;6.55;;;;;;;-142.70;100.00;60390.16;4851671;29;20420;-76
2023/03/20 03:31:54;;;;;;;8.00;6.55;;;;;;;-142.70;100.00;60390.16;4866029;29;20035;-76
2023/03/20 03:34:20;;;;;;;7.38;6.25;;;;;;;-142.70;100.00;60390.16;4866215;29;20025;-76
2023/03/20 03:37:01;;;;;;;9.15;7.65;;;;;;;-142.70;100.00;60390.16;4866805;29;20107;-76
2023/03/20 03:39:45;;;;;;;8.05;7.25;;;;;;;-142.70;100.00;60390.16;4865623;29;20490;-76
2023/03/20 03:42:34;;;;;;;8.18;7.07;;;;;;;-142.70;100.00;60390.16;4868009;29;20041;-76
2023/03/20 03:45:21;;;;;;;6.53;5.93;;;;;;;-142.70;100.00;60390.16;4850131;29;20510;-76
2023/03/20 03:47:53;;;;;;;7.47;6.50;;;;;;;-142.70;100.00;60390.16;4866129;29;20049;-76
2023/03/20 03:50:30;;;;;;;8.65;6.95;;;;;;;-142.70;100.00;60390.16;4866317;29;20032;-76
2023/03/20 03:53:00;;;;;;;8.02;7.10;;;;;;;-142.70;100.00;60390.16;4850024;29;20116;-76
2023/03/20 03:55:31;;;;;;;7.75;6.93;;;;;;;-142.70;100.00;60390.16;4867273;29;20548;-76
2023/03/20 03:57:59;;;;;;;11.30;6.72;;;;;;;-142.70;100.00;60390.16;4865740;29;20044;-76
2023/03/20 04:00:26;;;;;;;8.98;7.35;;;;;;;-142.70;100.00;60390.16;4866120;29;20061;-76
2023/03/20 04:02:57;;;;;;;10.23;7.55;;;;;;;-142.70;100.00;60390.16;4866278;29;20025;-76
2023/03/20 04:05:25;;;;;;;7.72;6.88;;;;;;;-142.70;100.00;60390.16;4866812;29;20459;-76
2023/03/20 04:07:55;;;;;;;10.02;7.88;;;;;;;-142.70;100.00;60390.16;4866317;29;20037;-76
2023/03/20 04:10:21;;;;;;;9.30;7.80;;;;;;;-142.70;100.00;60390.16;4864702;29;20033;-76
2023/03/20 04:12:46;;;;;;;15.40;10.00;;;;;;;-142.70;100.00;60390.16;4881984;29;20044;-76
2023/03/20 04:15:14;;;;;;;10.43;8.80;;;;;;;-142.70;100.00;60390.16;4880274;29;20021;-76
2023/03/20 04:17:40;;;;;;;34.55;21.27;;;;;;;-142.70;100.00;60390.16;4866215;29;20583;-76
2023/03/20 04:20:07;;;;;;;26.52;17.30;;;;;;;-142.70;100.00;60390.16;4880480;29;20807;-76
2023/03/20 04:22:33;;;;;;;9.07;7.90;;;;;;;-142.70;100.00;60390.16;4867966;29;20594;-76
2023/03/20 04:25:01;;;;;;;10.00;7.50;;;;;;;-142.70;100.00;60390.16;4871218;29;20033;-76
2023/03/20 04:27:27;;;;;;;8.07;5.97;;;;;;;-142.70;100.00;60390.16;4853413;29;20334;-76
2023/03/20 04:29:54;;;;;;;7.60;6.80;;;;;;;-142.70;100.00;60390.16;4854588;29;20025;-76
2023/03/20 04:32:20;;;;;;;9.95;7.50;;;;;;;-142.70;100.00;60390.16;4868968;29;20029;-76
2023/03/20 04:34:45;;;;;;;8.75;7.03;;;;;;;-142.70;100.00;60390.16;4870703;29;20081;-76
2023/03/20 04:37:11;;;;;;;8.90;7.97;;;;;;;-142.70;100.00;60390.16;4870579;29;20032;-76
2023/03/20 04:39:36;;;;;;;14.07;8.93;;;;;;;-142.70;100.00;60390.16;4884864;29;20078;-76
2023/03/20 04:42:03;;;;;;;13.30;9.05;;;;;;;-142.70;100.00;60390.16;4869876;29;20033;-77
2023/03/20 04:44:29;;;;;;;8.40;6.80;;;;;;;-142.70;100.00;60390.16;4853177;29;20053;-76
2023/03/20 04:46:55;;;;;;;9.07;7.22;;;;;;;-142.70;100.00;60390.16;4869759;29;20072;-76
2023/03/20 04:49:20;;;;;;;11.18;8.13;;;;;;;-142.70;100.00;60390.16;4868266;29;20033;-76
2023/03/20 04:51:46;;;;;;;28.02;18.80;;;;;;;-142.70;100.00;60390.16;4854174;29;20491;-76
2023/03/20 04:54:11;;;;;;;29.08;19.70;;;;;;;-142.70;100.00;60390.16;4870285;29;20037;-76
2023/03/20 04:56:37;;;;;;;38.00;18.55;;;;;;;-142.70;100.00;60390.16;4870453;29;20526;-76
2023/03/20 04:59:02;;;;;;;19.67;13.05;;;;;;;-142.70;100.00;60390.16;4852133;29;20423;-76
2023/03/20 05:01:27;;;;;;;10.88;9.27;;;;;;;-142.70;100.00;60390.16;4868667;29;20496;-76
2023/03/20 05:03:59;;;;;;;11.93;7.05;;;;;;;-142.70;100.00;60390.16;4870408;29;20433;-76
2023/03/20 05:06:27;;;;;;;8.43;6.95;;;;;;;-142.70;100.00;60390.16;4869689;29;20105;-76
2023/03/20 05:08:53;;;;;;;6.05;5.45;;;;;;;-142.70;100.00;60390.16;4869398;29;20040;-76
2023/03/20 05:11:20;;;;;;;6.75;5.40;;;;;;;-142.70;100.00;60390.16;4868368;29;20036;-76
2023/03/20 05:13:46;;;;;;;9.90;6.25;;;;;;;-142.70;100.00;60390.16;4869031;29;20041;-76
2023/03/20 05:16:12;;;;;;;8.23;5.15;;;;;;;-142.70;100.00;60390.16;4884255;29;20590;-76
2023/03/20 05:18:37;;;;;;;7.60;5.05;;;;;;;-142.70;100.00;60390.16;4884150;29;20032;-76
2023/03/20 05:21:03;;;;;;;6.63;5.95;;;;;;;-142.70;100.00;60390.16;4884608;29;20032;-76
2023/03/20 05:23:28;;;;;;;17.08;11.65;;;;;;;-142.70;100.00;60390.16;4883704;29;20063;-76
2023/03/20 05:25:54;;;;;;;62.63;38.80;;;;;;;-142.70;100.00;60390.16;4869086;29;20093;-76
2023/03/20 05:28:19;;;;;;;26.65;19.33;;;;;;;-142.70;100.00;60390.16;4883836;29;20029;-77
2023/03/20 05:30:45;;;;;;;12.65;11.18;;;;;;;-142.70;100.00;60390.16;4869733;29;20033;-77
2023/03/20 05:33:10;;;;;;;8.15;7.00;;;;;;;-142.70;100.00;60390.16;4867971;29;20036;-76
2023/03/20 05:35:36;;;;;;;9.10;5.28;;;;;;;-142.70;100.00;60390.16;4884554;29;20571;-76
2023/03/20 05:38:01;;;;;;;11.18;8.00;;;;;;;-142.70;100.00;60390.16;4884232;29;20599;-77
2023/03/20 05:40:27;;;;;;;8.23;6.57;;;;;;;-142.70;100.00;60390.16;4869917;29;20055;-76
2023/03/20 05:42:52;;;;;;;9.95;7.03;;;;;;;-142.70;100.00;60390.16;4884775;29;20037;-76
2023/03/20 05:45:18;;;;;;;7.43;6.53;;;;;;;-142.70;100.00;60390.16;4868493;29;20040;-77
2023/03/20 05:47:43;;;;;;;19.52;15.65;;;;;;;-142.70;100.00;60390.16;4884946;29;20033;-77
2023/03/20 05:50:10;;;;;;;39.47;27.27;;;;;;;-142.70;100.00;60390.16;4867214;29;20052;-77
2023/03/20 05:52:36;;;;;;;127.82;73.60;;;;;;;-142.70;100.00;60390.16;4859988;29;20878;-76
2023/03/20 05:55:01;;;;;;;125.10;73.93;;;;;;;-142.70;100.00;60390.16;4858456;29;20144;-77
2023/03/20 05:57:27;;;;;;;102.43;55.15;;;;;;;-142.70;100.00;60390.16;4870108;29;20064;-77
2023/03/20 05:59:52;;;;;;;40.95;26.15;;;;;;;-142.70;100.00;60390.16;4869033;29;20033;-77
2023/03/20 06:02:17;;;;;;;12.43;11.10;;;;;;;-142.70;100.00;60390.16;4868212;29;20036;-77
2023/03/20 06:04:43;;;;;;;11.10;9.88;;;;;;;-142.70;100.00;60390.16;4869265;29;20036;-77
2023/03/20 06:07:08;;;;;;;9.80;9.00;;;;;;;-142.70;100.00;60390.16;4869110;29;20040;-77
2023/03/20 06:09:34;;;;;;;9.15;8.25;;;;;;;-142.70;100.00;60390.16;4874067;29;20089;-77
2023/03/20 06:11:59;;;;;;;7.97;7.18;;;;;;;-142.70;100.00;60390.16;4862509;29;20029;-77
2023/03/20 06:14:25;;;;;;;9.70;8.50;;;;;;;-142.70;100.00;60390.16;4846526;29;20032;-77
2023/03/20 06:16:52;;;;;;;8.73;7.82;;;;;;;-142.70;100.00;60390.16;4857099;29;20132;-74
2023/03/20 06:19:18;;;;;;;9.88;8.40;;;;;;;-142.70;100.00;60390.16;4849312;29;20064;-76
2023/03/20 06:21:44;;;;;;;9.45;8.50;;;;;;;-142.70;100.00;60390.16;4859888;29;20415;-76
2023/03/20 06:24:09;;;;;;;8.77;8.07;;;;;;;-142.70;100.00;60390.16;4864647;29;20095;-76
2023/03/20 06:26:35;;;;;;;7.95;6.97;;;;;;;-142.70;100.00;60390.16;4848298;29;20037;-74
2023/03/20 06:29:00;;;;;;;8.13;7.32;;;;;;;-142.70;100.00;60390.16;4866975;29;20068;-77
2023/03/20 06:31:26;;;;;;;7.75;7.07;;;;;;;-142.70;100.00;60390.16;4881628;29;20169;-76
2023/03/20 06:33:51;;;;;;;6.72;6.10;;;;;;;-142.70;100.00;60390.16;4880988;29;20037;-76
2023/03/20 06:36:17;;;;;;;13.05;7.25;;;;;;;-142.70;100.00;60390.16;4866676;29;20059;-76
2023/03/20 06:38:42;;;;;;;10.77;6.95;;;;;;;-142.70;100.00;60390.16;4867395;29;20140;-76
2023/03/20 06:41:07;;;;;;;8.68;7.90;;;;;;;-142.70;100.00;60390.16;4874250;29;20400;-76
2023/03/20 06:43:33;;;;;;;7.32;6.65;;;;;;;-142.70;100.00;60390.16;4866521;29;20911;-76
2023/03/20 06:45:59;;;;;;;6.88;6.20;;;;;;;-142.70;100.00;60390.16;4865342;29;20475;-76
2023/03/20 06:48:24;;;;;;;8.63;7.82;;;;;;;-142.70;100.00;60390.16;4851070;29;20040;-76
2023/03/20 06:50:50;;;;;;;8.95;7.82;;;;;;;-142.70;100.00;60390.16;4844375;29;20038;-75
2023/03/20 06:53:16;;;;;;;9.07;8.00;;;;;;;-142.70;100.00;60390.16;4849284;29;20033;-76
2023/03/20 06:55:50;;;;;;;9.63;8.63;;;;;;;-142.70;100.00;60390.16;4864130;29;20105;-76
2023/03/20 06:58:16;;;;;;;11.07;10.07;;;;;;;-142.70;100.00;60390.16;4866458;29;20053;-76
2023/03/20 07:00:42;;;;;;;10.98;9.75;;;;;;;-142.70;100.00;60390.16;4869191;29;20504;-76
2023/03/20 07:03:08;;;;;;;10.13;9.23;;;;;;;-142.70;100.00;60390.16;4870303;29;20086;-76
2023/03/20 07:05:33;;;;;;;10.75;9.95;;;;;;;-142.70;100.00;60390.16;4864904;29;20037;-76
2023/03/20 07:07:59;;;;;;;14.10;10.75;;;;;;;-142.70;100.00;60390.16;4865675;29;20068;-76
2023/03/20 07:10:26;;;;;;;10.57;9.68;;;;;;;-142.70;100.00;60390.16;4866567;29;20028;-76
2023/03/20 07:12:51;;;;;;;11.15;10.05;;;;;;;-142.70;100.00;60390.16;4865645;29;20475;-76
2023/03/20 07:15:17;;;;;;;12.27;11.10;;;;;;;-142.70;100.00;60390.16;4874494;29;20062;-76
2023/03/20 07:17:43;;;;;;;13.50;12.38;;;;;;;-142.70;100.00;60390.16;4864275;29;20041;-76
2023/03/20 07:20:09;;;;;;;14.63;10.93;;;;;;;-142.70;100.00;60390.16;4862056;29;20530;-76
2023/03/20 07:22:35;;;;;;;12.55;11.38;;;;;;;-142.70;100.00;60390.16;4860720;29;20056;-76
2023/03/20 07:25:01;;;;;;;12.02;10.90;;;;;;;-142.70;100.00;60390.16;4867401;29;20033;-76
2023/03/20 07:27:26;;;;;;;12.85;11.70;;;;;;;-142.70;100.00;60390.16;4855972;29;20038;-76
2023/03/20 07:29:52;;;;;;;12.55;11.15;;;;;;;-142.70;100.00;60390.16;4857337;29;20030;-75
2023/03/20 07:32:17;;;;;;;12.35;10.77;;;;;;;-142.70;100.00;60390.16;4867168;29;20396;-76
2023/03/20 07:34:43;;;;;;;13.38;12.15;;;;;;;-142.70;100.00;60390.16;4878660;29;20085;-76
2023/03/20 07:37:09;;;;;;;13.40;12.20;;;;;;;-142.70;100.00;60390.16;4865947;29;20044;-75
2023/03/20 07:39:36;;;;;;;13.52;11.88;;;;;;;-142.70;100.00;60390.16;4865528;29;20033;-76
2023/03/20 07:42:01;;;;;;;14.20;12.18;;;;;;;-142.70;100.00;60390.16;4850412;29;20045;-76
2023/03/20 07:44:27;;;;;;;13.80;12.52;;;;;;;-142.70;100.00;60390.16;4865822;29;20064;-75
2023/03/20 07:46:52;;;;;;;13.00;11.80;;;;;;;-142.70;100.00;60390.16;4866124;29;20033;-76
2023/03/20 07:49:18;;;;;;;13.90;12.50;;;;;;;-142.70;100.00;60390.16;4867137;29;20029;-75
2023/03/20 07:51:44;;;;;;;14.70;13.32;;;;;;;-142.70;100.00;60390.16;4880397;29;20033;-75
2023/03/20 07:54:10;;;;;;;16.67;12.80;;;;;;;-142.70;100.00;60390.16;4865078;29;20017;-75
2023/03/20 07:56:36;;;;;;;14.38;12.25;;;;;;;-142.70;100.00;60390.16;4865762;29;20045;-76
2023/03/20 07:59:02;;;;;;;13.18;11.90;;;;;;;-142.70;100.00;60390.16;4866432;29;20706;-76
2023/03/20 08:01:28;;;;;;;12.55;11.18;;;;;;;-142.70;100.00;60390.16;4865664;29;20028;-76
2023/03/20 08:03:53;;;;;;;11.73;10.52;;;;;;;-142.70;100.00;60390.16;4866073;29;20380;-76
2023/03/20 08:06:19;;;;;;;12.40;11.02;;;;;;;-142.70;100.00;60390.16;4881251;29;20025;-76
2023/03/20 08:08:45;;;;;;;12.07;10.75;;;;;;;-142.70;100.00;60390.16;4866137;29;20029;-76
2023/03/20 08:11:10;;;;;;;12.52;11.23;;;;;;;-142.70;100.00;60390.16;4867180;29;20407;-75
2023/03/20 08:13:36;;;;;;;11.13;9.65;;;;;;;-142.70;100.00;60390.16;4865695;29;20085;-76
2023/03/20 08:16:03;;;;;;;10.73;9.82;;;;;;;-142.70;100.00;60390.16;4865570;29;20558;-76
2023/03/20 08:18:29;;;;;;;11.30;10.20;;;;;;;-142.70;100.00;60390.16;4864993;29;20063;-75
2023/03/20 08:20:55;;;;;;;11.25;10.15;;;;;;;-142.70;100.00;60390.16;4865465;29;20205;-75
2023/03/20 08:23:20;;;;;;;11.32;10.27;;;;;;;-142.70;100.00;60390.16;4864850;29;20135;-75
2023/03/20 08:25:50;;;;;;;10.85;9.75;;;;;;;-142.70;100.00;60390.16;4865052;29;20029;-75
2023/03/20 08:28:17;;;;;;;10.82;9.77;;;;;;;-142.70;100.00;60390.16;4865530;29;20039;-76
2023/03/20 08:30:42;;;;;;;11.15;10.00;;;;;;;-142.70;100.00;60390.16;4864356;29;20033;-75
2023/03/20 08:33:08;;;;;;;12.85;11.55;;;;;;;-142.70;100.00;60390.16;4881003;29;20025;-75
2023/03/20 08:35:33;;;;;;;12.25;11.13;;;;;;;-142.70;100.00;60390.16;4866100;29;20029;-76
2023/03/20 08:37:59;;;;;;;12.00;10.88;;;;;;;-142.70;100.00;60390.16;4866560;29;20452;-75
2023/03/20 08:40:25;;;;;;;12.10;10.80;;;;;;;-142.70;100.00;60390.16;4865155;29;20922;-75
2023/03/20 08:42:50;;;;;;;10.45;9.27;;;;;;;-142.70;100.00;60390.16;4866193;29;20044;-75
2023/03/20 08:45:16;;;;;;;13.60;9.15;;;;;;;-142.70;100.00;60390.16;4880538;29;20028;-73
2023/03/20 08:47:41;;;;;;;12.23;9.07;;;;;;;-142.70;100.00;60390.16;4880257;29;20040;-75
2023/03/20 08:50:08;;;;;;;10.50;9.50;;;;;;;-142.70;100.00;60390.16;4880465;29;20041;-76
2023/03/20 08:52:34;;;;;;;10.68;9.68;;;;;;;-142.70;100.00;60390.16;4864245;29;20443;-75
2023/03/20 08:54:59;;;;;;;10.43;9.00;;;;;;;-142.70;100.00;60390.16;4864911;29;20021;-76
2023/03/20 08:57:25;;;;;;;11.60;8.90;;;;;;;-142.70;100.00;60390.16;4879524;29;20089;-75
2023/03/20 08:59:50;;;;;;;10.68;9.50;;;;;;;-142.70;100.00;60390.16;4864788;29;20105;-75
2023/03/20 09:02:16;;;;;;;11.70;9.20;;;;;;;-142.70;100.00;60390.16;4849366;29;20096;-76
2023/03/20 09:04:41;;;;;;;10.55;9.45;;;;;;;-142.70;100.00;60390.16;4849546;29;20037;-76
2023/03/20 09:07:07;;;;;;;9.77;8.38;;;;;;;-142.70;100.00;60390.16;4870387;29;20637;-73
2023/03/20 09:09:33;;;;;;;15.13;8.45;;;;;;;-142.70;100.00;60390.16;4867388;29;20033;-73
2023/03/20 09:11:59;;;;;;;11.50;7.70;;;;;;;-142.70;100.00;60390.16;4868519;29;20112;-75
2023/03/20 09:14:26;;;;;;;11.25;7.53;;;;;;;-142.70;100.00;60390.16;4867148;29;20024;-75
2023/03/20 09:16:52;;;;;;;9.82;7.22;;;;;;;-142.70;100.00;60390.16;4850317;29;20045;-75
2023/03/20 09:19:17;;;;;;;7.03;6.32;;;;;;;-142.70;100.00;60390.16;4866217;29;20033;-75
2023/03/20 09:21:43;;;;;;;7.07;6.35;;;;;;;-142.70;100.00;60390.16;4867652;29;20041;-76
2023/03/20 09:24:10;;;;;;;9.25;6.40;;;;;;;-142.70;100.00;60390.16;4882975;29;20053;-75
2023/03/20 09:26:36;;;;;;;7.47;6.18;;;;;;;-142.70;100.00;60390.16;4858066;29;20567;-76
2023/03/20 09:29:02;;;;;;;6.18;5.18;;;;;;;-142.70;100.00;60390.16;4865932;29;20052;-76
2023/03/20 09:31:28;;;;;;;8.00;5.50;;;;;;;-142.70;100.00;60390.16;4867225;29;20052;-75
2023/03/20 09:33:53;;;;;;;5.63;5.10;;;;;;;-142.70;100.00;60390.16;4869836;29;20457;-75
2023/03/20 09:36:18;;;;;;;5.72;5.20;;;;;;;-142.70;100.00;60390.16;4867299;29;20029;-75
2023/03/20 09:38:44;;;;;;;6.05;5.03;;;;;;;-142.70;100.00;60390.16;4869369;29;20101;-75
2023/03/20 09:41:21;;;;;;;5.45;4.93;;;;;;;-142.70;100.00;60390.16;4883386;29;20072;-75
2023/03/20 09:44:07;;;;;;;7.10;4.95;;;;;;;-142.70;100.00;60390.16;4855249;29;20041;-76
2023/03/20 09:46:57;;;;;;;5.55;4.60;;;;;;;-142.70;100.00;60390.16;4868795;29;20452;-75
2023/03/20 09:49:45;;;;;;;6.78;5.00;;;;;;;-142.70;100.00;60390.16;4868649;29;20037;-76
2023/03/20 09:52:30;;;;;;;6.90;4.50;;;;;;;-142.70;100.00;60390.16;4882608;29;20096;-76
2023/03/20 09:55:00;;;;;;;5.25;4.25;;;;;;;-142.70;100.00;60390.16;4867793;29;20045;-75
2023/03/20 09:57:54;;;;;;;6.47;4.20;;;;;;;-142.70;100.00;60390.16;4874873;29;20052;-75
2023/03/20 10:00:23;;;;;;;5.82;4.93;;;;;;;-142.70;100.00;60390.16;4859734;29;20041;-75
2023/03/20 10:02:49;;;;;;;7.43;4.97;;;;;;;-142.70;100.00;60390.16;4868660;29;20499;-76
2023/03/20 10:05:24;;;;;;;6.13;4.20;;;;;;;-142.70;100.00;60390.16;4882341;29;20036;-75
2023/03/20 10:07:50;;;;;;;4.50;4.10;;;;;;;-142.70;100.00;60390.16;4869736;29;20092;-75
2023/03/20 10:10:19;;;;;;;4.75;4.25;;;;;;;-142.70;100.00;60390.16;4866324;29;20097;-76
2023/03/20 10:12:49;;;;;;;5.78;4.50;;;;;;;-142.70;100.00;60390.16;4867535;29;20025;-75
2023/03/20 10:15:50;;;;;;;4.63;4.00;;;;;;;-142.70;100.00;60390.16;4866798;29;20393;-75
2023/03/20 10:18:25;;;;;;;5.25;4.10;;;;;;;-142.70;100.00;60390.16;4882163;29;20487;-75
2023/03/20 10:20:59;;;;;;;6.70;3.92;;;;;;;-142.70;100.00;60390.16;4851783;29;20446;-75
2023/03/20 10:24:03;;;;;;;5.18;4.50;;;;;;;-142.70;100.00;60390.16;4866622;29;20044;-75
2023/03/20 10:26:33;;;;;;;5.00;4.50;;;;;;;-142.70;100.00;60390.16;4844009;29;20049;-72
2023/03/20 10:29:07;;;;;;;6.45;5.22;;;;;;;-142.70;100.00;60390.16;4867229;29;20044;-75
2023/03/20 10:32:02;;;;;;;4.85;4.28;;;;;;;-142.70;100.00;60390.16;4865938;29;20028;-75
2023/03/20 10:34:45;;;;;;;8.40;4.80;;;;;;;-142.70;100.00;60390.16;4867125;29;20453;-76
2023/03/20 10:37:49;;;;;;;6.60;3.80;;;;;;;-142.70;100.00;60390.16;4857048;29;20057;-75
2023/03/20 10:40:38;;;;;;;4.50;4.10;;;;;;;-142.70;100.00;60390.16;4853359;29;20139;-75
2023/03/20 10:43:17;;;;;;;4.85;4.45;;;;;;;-142.70;100.00;60390.16;4851652;29;20105;-75
2023/03/20 10:46:13;;;;;;;5.15;4.15;;;;;;;-142.70;100.00;60390.16;4867835;29;20040;-75
2023/03/20 10:48:50;;;;;;;5.07;3.92;;;;;;;-142.70;100.00;60390.16;4863783;29;20029;-75
2023/03/20 10:51:18;;;;;;;3.30;3.00;;;;;;;-142.70;100.00;60390.16;4867115;29;20494;-75
2023/03/20 10:53:52;;;;;;;5.15;3.88;;;;;;;-142.70;100.00;60390.16;4846833;29;20041;-75
2023/03/20 10:56:36;;;;;;;5.15;3.90;;;;;;;-142.70;100.00;60390.16;4871913;29;20544;-75
2023/03/20 10:59:06;;;;;;;4.78;3.75;;;;;;;-142.70;100.00;60390.16;4857992;29;20037;-75
2023/03/20 11:01:31;;;;;;;4.20;3.60;;;;;;;-142.70;100.00;60390.16;4855795;29;20059;-75
2023/03/20 11:03:58;;;;;;;3.88;3.50;;;;;;;-142.70;100.00;60390.16;4859327;29;20057;-75
2023/03/20 11:06:31;;;;;;;3.90;3.50;;;;;;;-142.70;100.00;60390.16;4857522;29;20025;-75
2023/03/20 11:09:09;;;;;;;5.15;4.05;;;;;;;-142.70;100.00;60390.16;4877082;29;20119;-75
2023/03/20 11:11:35;;;;;;;5.70;3.50;;;;;;;-142.70;100.00;60390.16;4858209;29;20526;-75
2023/03/20 11:14:21;;;;;;;6.25;3.38;;;;;;;-142.70;100.00;60390.16;4839870;29;20033;-75
2023/03/20 11:16:52;;;;;;;4.18;3.53;;;;;;;-142.70;100.00;60390.16;4859631;29;20129;-75